Weather observations for the past three days for
Abbeville Chris Crusta Memorial Airport
Metric (Imperial)
Date Time (cdt) Wind (kph) Vis. (km) Weather Sky Cond. Temperature (ºC) Relative Humidity Wind Chill (°C) Heat Index (°C) Pressure Precipitation (cm)
Air Dwpt 6 hour altimeter (cm) sea level (mb) 1 hr 3 hr 6 hr
Max. Min.
10 12:35 E 6 14.48 A Few Clouds FEW340 27.1 23.3 80% 30 76.12 0.0
10 12:15 E 7 16.09 A Few Clouds FEW046 26.8 23.8 84% 30 76.15 0.0
10 11:55 E 9 16.09 Partly Cloudy FEW046 SCT350 SCT380 25.7 23.1 86% 27 76.17 0.0
10 11:35 NE 9 16.09 Mostly Cloudy FEW013 SCT046 BKN380 25.5 23.5 89% 27 76.17 0.0
10 11:15 E 7 16.09 Mostly Cloudy SCT012 SCT037 BKN046 BKN060 24.6 22.8 90% 25 76.2 0.0
10 10:55 NE 13 16.09 Overcast BKN011 OVC038 24.7 23 90% 25 76.2 0.0
10 10:35 Vrbl 9 16.09 Mostly Cloudy BKN011 BKN037 24.2 22.9 92% 24 76.2 0.0
10 10:15 Vrbl 7 16.09 Mostly Cloudy SCT008 BKN045 23.6 23.6 100% 76.2 0.0
10 09:55 NE 9 16.09 Overcast SCT006 OVC042 21.8 21.8 100% 76.23 0.0
10 09:35 NE 9 16.09 Overcast BKN005 OVC041 21.1 21.1 100% 76.23 0.0
10 09:15 NE 9 16.09 Overcast OVC004 20.6 20.6 100% 76.2 0.0
10 08:55 NE 7 12.87 Overcast OVC003 20.1 20.1 100% 76.17 0.0
10 08:35 NE 11 8.05 Fog/Mist OVC002 19.9 19.9 100% 76.17 0.0
10 08:15 NE 9 9.66 Fog/Mist OVC002 19.8 19.8 100% 76.15 0.0
10 07:55 NE 9 4.02 Fog/Mist OVC002 19.5 19.5 100% 76.12 0.0
10 07:35 NE 11 2.82 Fog/Mist OVC002 19.5 19.5 100% 76.12 0.0
10 07:15 NE 9 2.82 Fog/Mist OVC002 19.3 19.3 100% 76.1 0.0
10 06:55 Vrbl 7 0.80 Fog VV002 19.3 19.3 19.8 18.5 100% 76.05 0.0
10 06:35 NE 9 0.40 Fog VV002 19.3 19.3 100% 76.05 0.0
10 06:15 NE 9 0.40 Fog VV002 19.1 19.1 100% 76.02 0.0
10 05:55 NE 7 0.80 Fog VV002 19.1 19.1 100% 75.97 0.0
10 05:35 NE 6 0.80 Fog VV002 19 19 100% 75.95 0.0
10 05:15 NE 6 0.40 Fog VV001 18.9 18.9 100% 75.95 0.0
10 04:55 Calm 0.80 Fog VV001 18.8 18.8 100% 75.92 0.0
10 04:35 Vrbl 6 1.21 Fog/Mist VV002 18.9 18.9 100% 75.9 0.0
10 04:15 Calm 0.80 Fog VV002 19.1 19.1 100% 75.92 0.0
10 03:55 NE 7 0.80 Fog VV002 19.2 19.2 100% 75.92 0.0
10 03:35 NE 7 3.22 Fog/Mist BKN002 19 19 100% 75.92 0.0
10 03:15 Calm 6.44 Fog/Mist CLR 18.8 18.8 100% 75.9 0.0
10 02:55 Calm 2.41 Fog/Mist CLR 18.8 18.8 100% 75.9 0.0
10 02:35 Calm 6.44 Fog/Mist CLR 19 19 100% 75.9 0.0
10 02:15 NE 6 1.61 Fog/Mist CLR 19 19 100% 75.9 0.0
10 01:55 N 6 0.80 Fog CLR 18.7 18.7 100% 75.9 0.0
10 01:35 Calm 0.80 Fog CLR 19 19 100% 75.87 0.0
10 01:15 Calm 3.22 Fog/Mist CLR 19.4 19.4 100% 75.87 0.0
10 00:55 Calm 12.87 A Few Clouds FEW008 20 20 21.1 19.9 100% 75.9 0.0
10 00:35 N 9 14.48 A Few Clouds FEW008 20 20 100% 75.9 0.0
10 00:15 Calm 16.09 Fair CLR 20.8 20.8 100% 75.9 0.0
09 23:55 S 11 16.09 Partly Cloudy SCT190 20.7 20.7 100% 75.87 0.0
09 23:35 S 6 16.09 Mostly Cloudy BKN190 20.9 20.9 100% 75.9 0.0
09 23:15 SE 11 16.09 Partly Cloudy SCT200 20.7 20.7 100% 75.87 0.0
09 22:55 S 15 16.09 Mostly Cloudy BKN150 BKN210 20.6 20.6 100% 75.9 0.0
09 22:35 S 15 16.09 Partly Cloudy SCT150 20.6 20.6 100% 75.87 0.0
09 22:15 SE 15 16.09 Partly Cloudy SCT150 20.4 20.4 100% 75.9 0.0
09 21:55 S 13 16.09 Mostly Cloudy BKN150 20.2 20.2 100% 75.95 0.0
09 21:35 S 9 16.09 Mostly Cloudy BKN150 20.2 20.2 100% 75.95 0.0
09 21:15 SE 6 16.09 Mostly Cloudy FEW130 BKN150 20.4 20.4 100% 75.95 0.0
09 20:55 SE 7 16.09 Mostly Cloudy BKN130 20.4 20.4 100% 75.92 0.0
09 20:35 SE 6 16.09 Partly Cloudy SCT130 20.5 20.5 100% 75.92 0.0
09 20:15 E 6 16.09 Mostly Cloudy FEW031 BKN150 20.5 20.5 100% 75.9 0.0
09 19:55 Calm 12.87 Mostly Cloudy SCT031 BKN150 20.8 20.8 100% 75.9 0.0
09 19:35 E 6 16.09 Mostly Cloudy BKN150 20.9 20.9 100% 75.9 0.0
09 19:15 SE 6 16.09 Mostly Cloudy BKN160 21 21 100% 75.84 0.0
09 18:55 SE 7 16.09 Mostly Cloudy BKN160 21 21 21 19.5 100% 75.82 0.0
09 18:35 SE 9 14.48 Partly Cloudy SCT150 20.9 20.9 100% 75.82 0.0
09 18:15 SE 11 14.48 Partly Cloudy SCT150 20.9 20.9 100% 75.79 0.0
09 17:55 SE 13 11.27 Partly Cloudy SCT160 20.8 20.8 100% 75.77 0.0
09 17:35 SE 13 11.27 Mostly Cloudy FEW110 BKN160 20.7 20.7 100% 75.74 0.0
09 17:15 E 11 11.27 Partly Cloudy FEW030 SCT110 20.5 20.5 100% 75.72 0.0
09 16:55 E 9 8.05 Light Rain Fog/Mist BKN030 20.5 20.5 100% 75.82 0.0
09 16:35 NE 11 6.44 Light Rain Fog/Mist FEW007 SCT033 20.6 20.6 100% 75.82 0.0
09 16:15 E 7 6.44 Light Rain Fog/Mist SCT007 BKN034 20.4 20.4 100% 75.82 0.0
09 15:55 Vrbl 7 11.27 Light Rain FEW090 20.2 20.2 100% 75.82 0.0
09 15:35 SE 17 11.27 Thunderstorm in Vicinity SCT020 SCT043 20.2 20.2 100% 75.79 0.0
09 15:15 Calm 0.80 Rain Fog Thunderstorm in Vicinity SCT005 OVC020 20.1 20.1 100% 75.84 0.0
09 14:55 NE 9 4.83 Thunderstorm Light Rain Fog/Mist OVC005 20.2 20.2 100% 75.84 0.0
09 14:35 Vrbl 7 11.27 Thunderstorm in Vicinity BKN006 OVC029 20.1 20.1 100% 75.82 0.0
09 14:15 E 13 8.05 Light Rain Fog/Mist OVC006 20 20 100% 75.82 0.0
09 13:55 E 11 9.66 Light Rain Fog/Mist Thunderstorm in Vicinity BKN005 OVC036 19.9 19.9 100% 75.84 0.0
09 13:35 E 9 11.27 Overcast SCT005 OVC035 20.1 20.1 100% 75.84 0.0
09 13:15 Vrbl 9 4.02 Light Rain Fog/Mist Thunderstorm in Vicinity FEW004 BKN015 OVC040 19.7 19.7 100% 75.87 0.0
09 12:55 SE 15 4.02 Light Rain Fog/Mist Thunderstorm in Vicinity SCT005 BKN019 OVC030 19.6 19.6 25.1 19.1 100% 75.9 0.0 0.03 0.03
09 12:35 E 11 6.44 Light Rain Fog/Mist Thunderstorm in Vicinity BKN018 BKN029 19.5 19.5 100% 75.84 0.0 0.03
09 12:15 S 15 1.61 Thunderstorm Rain Fog/Mist SCT005 OVC011 19.6 19.6 100% 75.9 0.0 0.03
09 11:55 E 7 3.22 Thunderstorm Light Rain Fog/Mist OVC019 19.4 19.4 100% 75.84 0.0
09 11:35 Vrbl 6 1.61 Rain Fog/Mist Thunderstorm in Vicinity BKN019 OVC028 19.4 19.4 100% 75.84 0.0
09 11:15 SE 9 8.05 Thunderstorm Light Rain Fog/Mist FEW004 SCT023 BKN029 OVC039 19.5 19.5 100% 75.87 0.0
09 10:55 NE 11 9.66 Light Rain Fog/Mist Thunderstorm in Vicinity FEW013 BKN028 BKN034 BKN049 19.7 19.7 100% 75.84 0.0
09 10:35 Vrbl 7 9.66 Light Rain Fog/Mist Thunderstorm in Vicinity SCT029 BKN037 19.4 19.4 100% 75.9 0.0
09 10:15 Vrbl 7 8.05 Light Rain Fog/Mist Thunderstorm in Vicinity BKN012 BKN037 19.3 19.3 100% 75.84 0.0
09 09:55 NE 15 1.21 Thunderstorm Heavy Rain Fog/Mist VV008 19.3 19.3 100% 75.87 0.0
09 09:35 NE 20 G 35 0.80 Thunderstorm Heavy Rain Fog BKN007 OVC013 19.2 19.2 100% 75.82 0.0
09 09:15 NE 19 G 30 11.27 Thunderstorm Light Rain SCT005 OVC014 19.6 19.6 100% 75.82 0.0
09 08:55 NE 13 6.44 Light Rain Fog/Mist Thunderstorm in Vicinity OVC006 19.9 19.9 100% 75.82 0.0
09 08:35 NE 15 3.22 Light Rain Fog/Mist Thunderstorm in Vicinity OVC006 24.9 24.9 100% 25 75.79 0.0
09 08:15 SW 6 11.27 Light Rain Thunderstorm in Vicinity OVC006 25.1 25.1 100% 26 75.77 0.0
09 07:55 W 6 14.48 Thunderstorm in Vicinity BKN008 OVC013 24.9 24.9 100% 25 75.79 0.0
09 07:35 SW 7 12.87 Thunderstorm SCT007 OVC013 24.2 24.2 100% 23 75.77 0.0
09 07:15 SW 7 11.27 Thunderstorm BKN007 OVC011 24.7 24.7 100% 24 75.77 0.0
09 06:55 SW 6 11.27 Overcast BKN006 OVC011 24.5 24.5 24.5 20.9 100% 24 75.77 0.0
09 06:35 SW 9 12.87 Overcast OVC008 24.3 24.3 100% 23 75.77 0.0
09 06:15 S 7 12.87 Mostly Cloudy BKN007 23.9 23.9 100% 22 75.74 0.0
09 05:55 S 9 14.48 Mostly Cloudy BKN007 23.8 23.8 100% 75.69 0.0
09 05:35 S 6 16.09 Overcast BKN006 OVC012 23.8 23.8 100% 75.72 0.0
09 05:15 S 7 16.09 Overcast BKN007 OVC012 23.8 23.8 100% 75.69 0.0
09 04:55 S 11 16.09 Overcast OVC008 23.6 23.6 100% 75.67 0.0
09 04:35 S 11 16.09 Overcast OVC007 23.6 23.6 100% 75.67 0.0
09 04:15 S 9 16.09 Overcast OVC008 23.5 23.5 100% 75.69 0.0
09 03:55 SE 11 16.09 Overcast OVC009 23.3 23.3 100% 75.67 0.0
09 03:35 SE 13 16.09 Overcast BKN010 OVC017 23.2 23.2 100% 75.67 0.0
09 03:15 SE 11 16.09 Overcast BKN012 OVC019 23.2 23.2 100% 75.69 0.0
09 02:55 SE 11 16.09 Mostly Cloudy BKN012 23.1 23.1 100% 75.69 0.0
09 02:35 SE 15 16.09 Partly Cloudy SCT012 SCT250 23 23 100% 75.72 0.0
09 02:15 SE 13 16.09 A Few Clouds FEW016 22.9 22.9 100% 75.74 0.0
09 01:55 SE 11 16.09 Fair CLR 22.4 22.4 100% 75.77 0.0
09 01:35 Vrbl 7 16.09 Fair CLR 22 22 100% 75.79 0.0
09 01:15 SE 9 16.09 A Few Clouds FEW130 21.5 21.5 100% 75.79 0.0
09 00:55 Calm 12.87 A Few Clouds FEW025 20.9 20.9 22.1 20.9 100% 75.82 0.0
09 00:35 Calm 16.09 Partly Cloudy SCT023 21.1 21.1 100% 75.84 0.0
09 00:15 Calm 16.09 Mostly Cloudy BKN022 21.3 21.3 100% 75.84 0.0
08 23:55 E 6 16.09 Mostly Cloudy SCT022 BKN070 BKN120 21.4 21.4 100% 75.87 0.0
08 23:35 NE 6 16.09 Partly Cloudy SCT120 21.8 21.8 100% 75.9 0.0
08 23:15 SE 7 16.09 Partly Cloudy SCT120 21.4 21.4 100% 75.84 0.0
08 22:55 S 7 16.09 Mostly Cloudy FEW031 SCT044 SCT070 BKN120 21.1 21.1 100% 75.84 0.0
08 22:35 Calm 16.09 Mostly Cloudy FEW030 BKN044 BKN070 21.2 21.2 100% 75.87 0.0
08 22:15 Calm 16.09 Partly Cloudy FEW029 SCT070 21.4 21.4 100% 75.9 0.0
08 21:55 SE 7 16.09 Fair CLR 21.5 21.5 100% 75.84 0.0
08 21:35 SE 6 16.09 Thunderstorm in Vicinity FEW240 21.6 21.6 100% 75.82 0.0
08 21:15 SE 7 16.09 Partly Cloudy FEW070 SCT100 21.5 21.5 100% 75.77 0.0
08 20:55 SE 6 16.09 Mostly Cloudy BKN070 21.3 21.3 100% 75.79 0.0
08 20:35 S 7 16.09 Partly Cloudy FEW070 SCT100 SCT370 21.4 21.4 100% 75.79 0.0
08 20:15 SE 9 16.09 Partly Cloudy SCT065 21.5 21.5 100% 75.77 0.0
08 19:55 Calm 6.44 Light Rain Fog/Mist OVC070 21.8 21.8 100% 75.82 0.0
08 19:35 SE 7 14.48 Overcast OVC070 21.9 21.9 100% 75.79 0.0
08 19:15 SE 9 16.09 Mostly Cloudy BKN065 22 22 100% 75.79 0.0
08 18:55 SE 17 16.09 A Few Clouds FEW060 22.4 22.4 22.9 19.4 100% 75.77 0.0
08 18:35 E 9 16.09 Mostly Cloudy BKN060 22.5 22.4 99% 75.77 0.0
08 18:15 E 13 16.09 Partly Cloudy SCT050 SCT220 22.7 22.2 97% 75.79 0.0
08 17:55 E 7 16.09 Partly Cloudy SCT150 22.5 22.5 100% 75.77 0.0
08 17:35 E 11 16.09 A Few Clouds FEW150 22.5 22.5 100% 75.74 0.0
08 17:15 SE 9 16.09 Mostly Cloudy BKN047 BKN060 22 22 100% 75.77 0.0
08 16:55 Vrbl 6 16.09 Mostly Cloudy BKN050 21.4 21.4 100% 75.82 0.0
08 16:35 Vrbl 6 16.09 Mostly Cloudy BKN050 21.1 21.1 100% 75.84 0.0
08 16:15 E 9 16.09 Light Rain SCT006 BKN055 20.9 20.9 100% 75.84 0.0
08 15:55 E 11 9.66 Light Rain Fog/Mist BKN007 OVC040 20.6 20.6 100% 75.87 0.0
08 15:35 SE 11 16.09 Overcast FEW004 SCT022 BKN039 OVC048 20.2 20.2 100% 75.9 0.0
08 15:15 E 17 11.27 Light Rain FEW004 BKN025 BKN037 OVC049 19.9 19.9 100% 75.9 0.0
08 14:55 SE 11 0.80 Heavy Rain Fog Thunderstorm in Vicinity VV013 19.7 19.7 100% 75.92 0.0
08 14:35 SE 7 2.01 Thunderstorm Rain Fog/Mist FEW004 OVC013 19.8 19.8 100% 75.92 0.0
08 14:15 N 19 6.44 Thunderstorm Light Rain Fog/Mist SCT005 BKN027 19.8 19.8 100% 75.95 0.0
08 13:55 NE 13 8.05 Thunderstorm Light Rain Fog/Mist OVC026 19.7 19.7 100% 75.92 0.0
08 13:35 NE 15 2.01 Rain Fog/Mist SCT005 OVC026 19.6 19.6 100% 75.92 0.0
08 13:15 NE 15 4.02 Rain Fog/Mist Thunderstorm in Vicinity BKN005 BKN010 OVC021 19.4 19.4 100% 75.97 0.0
08 12:55 N 19 11.27 Light Rain Thunderstorm in Vicinity OVC005 20.5 20.5 21.4 19.2 100% 75.95 0.0 0.03
08 12:35 N 19 12.87 Light Rain OVC005 20.7 20.7 100% 75.97 0.0
08 12:15 N 11 14.48 Light Rain OVC005 21.1 21.1 100% 75.97 0.0
08 11:55 N 6 8.05 Fog/Mist OVC005 21.2 21.2 100% 75.95 0.0 0.03
08 11:35 Calm 8.05 Fog/Mist OVC005 21.3 21.3 100% 75.9 0.0 0.03
08 11:15 NE 6 8.05 Fog/Mist OVC005 21 21 100% 75.92 0.0
08 10:55 Calm 2.82 Light Rain Fog/Mist OVC006 20.7 20.7 100% 75.92 0.0
08 10:35 Calm 6.44 Light Rain Fog/Mist BKN005 OVC010 20.7 20.7 100% 75.97 0.0
08 10:15 Vrbl 6 9.66 Fog/Mist OVC009 20.7 20.7 100% 76 0.0
08 09:55 Calm 6.44 Light Rain Fog/Mist OVC008 20.5 20.5 100% 76 0.0
08 09:35 NE 9 9.66 Fog/Mist OVC008 20.3 20 98% 76 0.0
08 09:15 NE 9 12.87 Overcast OVC009 20.4 19.6 95% 76 0.0
08 08:55 NE 9 11.27 Overcast OVC009 20.4 19.6 95% 75.97 0.0
08 08:35 NE 7 12.87 Overcast OVC008 20.4 19.5 95% 75.97 0.0
08 08:15 Vrbl 9 12.87 Overcast OVC008 20.1 19.3 95% 75.92 0.0
08 07:55 Vrbl 7 12.87 Overcast OVC008 19.7 18.9 95% 75.95 0.0
08 07:35 Vrbl 6 12.87 Overcast OVC008 19.5 18.7 95% 75.97 0.0
08 07:15 Vrbl 7 12.87 Overcast OVC008 19.2 18.4 95% 76 0.0
08 06:55 NE 9 16.09 Overcast OVC009 19.1 18.3 19.2 18.9 95% 76 0.0
08 06:35 NE 9 16.09 Overcast OVC010 19.1 18.3 95% 76.02 0.0
08 06:15 NE 9 16.09 Overcast OVC010 19.1 18.3 95% 76.05 0.0
08 05:55 NE 9 16.09 Overcast OVC009 19.1 18.3 95% 76.02 0.0
08 05:35 NE 9 16.09 Overcast OVC008 19.1 18.4 96% 76 0.0
08 05:15 Vrbl 7 16.09 Overcast OVC009 19.1 18.4 96% 76 0.0
08 04:55 NE 15 16.09 Overcast OVC010 19.1 18.4 96% 75.95 0.0
08 04:35 NE 13 16.09 Overcast OVC010 19.2 18.5 96% 75.9 0.0
08 04:15 Vrbl 7 16.09 Overcast OVC011 19.2 18.5 96% 75.95 0.0
08 03:55 NE 7 16.09 Overcast OVC015 19.1 18.3 95% 75.97 0.0
08 03:35 NE 7 16.09 Overcast OVC017 19.1 18.4 96% 75.97 0.0
08 03:15 NE 7 16.09 Overcast OVC018 19.1 18.2 95% 75.95 0.0
08 02:55 E 7 16.09 Overcast OVC017 19 18.2 95% 75.95 0.0
08 02:35 Vrbl 9 16.09 Overcast OVC018 19 18.2 95% 75.92 0.0
08 02:15 NE 7 16.09 Overcast OVC018 19 18.2 95% 76 0.0
08 01:55 NE 7 16.09 Overcast OVC019 18.9 18.1 95% 76.02 0.0
08 01:35 NE 11 16.09 Overcast OVC019 18.9 18.1 95% 76.02 0.0
08 01:15 NE 9 16.09 Overcast OVC018 18.9 18.1 95% 76.05 0.0
08 00:55 NE 9 16.09 Overcast OVC020 19 18.2 22.9 18.5 95% 76.07 0.0
08 00:35 N 7 16.09 Overcast OVC019 19 18.2 95% 76.1 0.0
08 00:15 NE 7 16.09 Overcast OVC021 19 18.2 95% 76.07 0.0
07 23:55 NE 7 16.09 Overcast OVC021 19 18.1 95% 76.1 0.0
07 23:35 NE 7 16.09 Overcast OVC019 18.9 18.1 95% 76.1 0.0
07 23:15 NE 11 16.09 Overcast OVC017 18.9 18.1 95% 76.1 0.0
07 22:55 E 9 16.09 Mostly Cloudy BKN018 18.7 18 96% 76.07 0.0
07 22:35 NE 6 16.09 A Few Clouds FEW020 18.5 18 97% 76.1 0.0
07 22:15 NE 9 16.09 A Few Clouds FEW200 18.9 17.9 94% 76.1 0.0
07 21:55 NE 6 16.09 Fair CLR 19 17.9 93% 76.1 0.0
07 21:35 NE 9 16.09 Fair CLR 19.2 17.7 91% 76.07 0.0
07 21:15 NE 9 16.09 Fair CLR 19.4 18 92% 76.07 0.0
07 20:55 NE 11 16.09 A Few Clouds FEW260 19.9 18 89% 76.05 0.0
07 20:35 NE 9 16.09 A Few Clouds FEW260 20.1 18 88% 76.02 0.0
07 20:15 NE 13 16.09 Fair CLR 20.4 18.1 87% 76.02 0.0
07 19:55 NE 15 16.09 Partly Cloudy SCT170 21.2 18.4 84% 76 0.0
07 19:35 N 13 16.09 A Few Clouds FEW060 21.7 18.7 83% 76.02 0.0
07 19:15 NE 15 16.09 Overcast OVC060 22.5 18.9 80% 76 0.0
07 18:55 NE 11 16.09 Mostly Cloudy BKN060 23.1 19.1 25.6 22.9 78% 76 0.0
07 18:35 NE 11 16.09 Mostly Cloudy BKN060 23.5 19.3 77% 76 0.0
07 18:15 NE 17 16.09 Partly Cloudy SCT044 SCT055 23.5 19.1 76% 75.97 0.0
07 17:55 N 17 16.09 Overcast OVC044 23.9 19.2 75% 25 76 0.0
07 17:35 NE 17 16.09 Overcast OVC043 24.1 19.4 75% 25 76 0.0
07 17:15 NE 11 16.09 Overcast BKN028 OVC044 24.6 19.6 74% 25 76 0.0
07 16:55 N 17 16.09 Partly Cloudy SCT028 24.8 19.6 73% 26 76 0.0
07 16:35 N 15 16.09 Fair CLR 25.2 19.7 72% 26 76 0.0
07 15:15 N 15 16.09 Partly Cloudy SCT210 25.2 20.4 75% 26 76 0.0
07 14:55 NE 13 16.09 Partly Cloudy SCT220 SCT380 24.8 20.2 76% 26 76.02 0.0
07 14:35 NE 11 16.09 A Few Clouds FEW300 25.3 20.6 75% 26 76.02 0.0
07 14:15 N 15 16.09 Partly Cloudy FEW032 SCT310 24.3 19.8 76% 25 76.02 0.0
07 13:55 N 15 16.09 Partly Cloudy FEW021 SCT028 23.7 19.6 78% 76.05 0.0
07 13:35 N 11 16.09 Partly Cloudy FEW021 SCT030 23.1 19.3 79% 76.07 0.0
07 13:15 NE 11 16.09 Partly Cloudy FEW018 SCT290 SCT360 23.5 19.7 79% 76.1 0.0
07 12:55 N 9 16.09 Fair CLR 22.4 19.2 22.4 16.4 82% 76.07 0.0
Date Time (cdt) Wind (kph) Vis. (km) Weather Sky Cond. Air Dwpt Max. Min. Relative Humidity Wind Chill (°C) Heat Index (°C) altimeter (cm) sea level (mb) 1 hr 3 hr 6 hr
6 hour
Temperature (ºC) Pressure Precipitation (cm)